sensor_id;sensor_type;location;lat;lon;timestamp;P1;durP1;ratioP1;P2;durP2;ratioP2
18822;SDS011;9540;51.550;7.980;2023-07-29T00:00:07;4.25;;;2.17;;
18822;SDS011;9540;51.550;7.980;2023-07-29T00:02:35;3.42;;;2.00;;
18822;SDS011;9540;51.550;7.980;2023-07-29T00:05:03;2.25;;;1.90;;
18822;SDS011;9540;51.550;7.980;2023-07-29T00:07:30;3.13;;;2.10;;
18822;SDS011;9540;51.550;7.980;2023-07-29T00:09:58;2.35;;;1.75;;
18822;SDS011;9540;51.550;7.980;2023-07-29T00:12:25;2.38;;;2.17;;
18822;SDS011;9540;51.550;7.980;2023-07-29T00:14:53;2.20;;;2.03;;
18822;SDS011;9540;51.550;7.980;2023-07-29T00:17:21;2.53;;;2.05;;
18822;SDS011;9540;51.550;7.980;2023-07-29T00:19:48;2.60;;;2.40;;
18822;SDS011;9540;51.550;7.980;2023-07-29T00:22:15;2.70;;;2.00;;
18822;SDS011;9540;51.550;7.980;2023-07-29T00:24:42;2.05;;;1.90;;
18822;SDS011;9540;51.550;7.980;2023-07-29T00:27:09;4.60;;;2.47;;
18822;SDS011;9540;51.550;7.980;2023-07-29T00:29:36;3.25;;;2.35;;
18822;SDS011;9540;51.550;7.980;2023-07-29T00:32:05;3.38;;;2.20;;
18822;SDS011;9540;51.550;7.980;2023-07-29T00:34:33;2.72;;;2.47;;
18822;SDS011;9540;51.550;7.980;2023-07-29T00:37:00;3.30;;;2.45;;
18822;SDS011;9540;51.550;7.980;2023-07-29T00:39:27;2.70;;;2.30;;
18822;SDS011;9540;51.550;7.980;2023-07-29T00:41:54;2.00;;;1.90;;
18822;SDS011;9540;51.550;7.980;2023-07-29T00:44:21;3.25;;;1.92;;
18822;SDS011;9540;51.550;7.980;2023-07-29T00:46:49;2.25;;;2.10;;
18822;SDS011;9540;51.550;7.980;2023-07-29T00:49:20;2.83;;;2.15;;
18822;SDS011;9540;51.550;7.980;2023-07-29T00:51:49;2.00;;;1.90;;
18822;SDS011;9540;51.550;7.980;2023-07-29T00:54:17;2.72;;;2.53;;
18822;SDS011;9540;51.550;7.980;2023-07-29T00:56:44;3.60;;;2.25;;
18822;SDS011;9540;51.550;7.980;2023-07-29T00:59:11;2.30;;;1.92;;
18822;SDS011;9540;51.550;7.980;2023-07-29T01:01:39;2.70;;;2.50;;
18822;SDS011;9540;51.550;7.980;2023-07-29T01:04:06;2.60;;;2.13;;
18822;SDS011;9540;51.550;7.980;2023-07-29T01:06:38;4.97;;;2.65;;
18822;SDS011;9540;51.550;7.980;2023-07-29T01:09:14;2.40;;;2.30;;
18822;SDS011;9540;51.550;7.980;2023-07-29T01:11:58;4.40;;;2.40;;
18822;SDS011;9540;51.550;7.980;2023-07-29T01:14:34;2.70;;;2.50;;
18822;SDS011;9540;51.550;7.980;2023-07-29T01:17:07;3.33;;;2.78;;
18822;SDS011;9540;51.550;7.980;2023-07-29T01:19:43;2.30;;;2.10;;
18822;SDS011;9540;51.550;7.980;2023-07-29T01:22:23;4.40;;;3.08;;
18822;SDS011;9540;51.550;7.980;2023-07-29T01:24:52;3.17;;;2.45;;
18822;SDS011;9540;51.550;7.980;2023-07-29T01:27:20;3.33;;;2.70;;
18822;SDS011;9540;51.550;7.980;2023-07-29T01:29:47;2.95;;;2.28;;
18822;SDS011;9540;51.550;7.980;2023-07-29T01:32:14;2.47;;;2.28;;
18822;SDS011;9540;51.550;7.980;2023-07-29T01:34:48;2.75;;;2.28;;
18822;SDS011;9540;51.550;7.980;2023-07-29T01:37:25;3.67;;;2.42;;
18822;SDS011;9540;51.550;7.980;2023-07-29T01:39:55;2.47;;;2.33;;
18822;SDS011;9540;51.550;7.980;2023-07-29T01:42:25;3.88;;;2.30;;
18822;SDS011;9540;51.550;7.980;2023-07-29T01:44:53;2.65;;;2.45;;
18822;SDS011;9540;51.550;7.980;2023-07-29T01:47:20;2.05;;;1.95;;
18822;SDS011;9540;51.550;7.980;2023-07-29T01:49:48;2.30;;;2.20;;
18822;SDS011;9540;51.550;7.980;2023-07-29T01:52:15;2.83;;;2.28;;
18822;SDS011;9540;51.550;7.980;2023-07-29T01:54:43;2.20;;;1.98;;
18822;SDS011;9540;51.550;7.980;2023-07-29T01:57:11;2.35;;;2.17;;
18822;SDS011;9540;51.550;7.980;2023-07-29T01:59:38;2.20;;;2.00;;
18822;SDS011;9540;51.550;7.980;2023-07-29T02:02:05;2.20;;;2.03;;
18822;SDS011;9540;51.550;7.980;2023-07-29T02:04:33;2.90;;;2.08;;
18822;SDS011;9540;51.550;7.980;2023-07-29T02:07:00;2.17;;;2.08;;
18822;SDS011;9540;51.550;7.980;2023-07-29T02:09:27;2.58;;;2.38;;
18822;SDS011;9540;51.550;7.980;2023-07-29T02:11:55;5.35;;;2.25;;
18822;SDS011;9540;51.550;7.980;2023-07-29T02:14:24;5.32;;;2.50;;
18822;SDS011;9540;51.550;7.980;2023-07-29T02:16:51;4.20;;;2.70;;
18822;SDS011;9540;51.550;7.980;2023-07-29T02:19:18;3.00;;;2.53;;
18822;SDS011;9540;51.550;7.980;2023-07-29T02:21:46;2.65;;;2.40;;
18822;SDS011;9540;51.550;7.980;2023-07-29T02:24:13;2.60;;;2.40;;
18822;SDS011;9540;51.550;7.980;2023-07-29T02:29:07;5.35;;;2.20;;
18822;SDS011;9540;51.550;7.980;2023-07-29T02:31:36;2.72;;;2.53;;
18822;SDS011;9540;51.550;7.980;2023-07-29T02:34:03;2.65;;;2.40;;
18822;SDS011;9540;51.550;7.980;2023-07-29T02:36:30;2.53;;;2.35;;
18822;SDS011;9540;51.550;7.980;2023-07-29T02:38:57;4.65;;;2.72;;
18822;SDS011;9540;51.550;7.980;2023-07-29T02:41:25;5.97;;;2.80;;
18822;SDS011;9540;51.550;7.980;2023-07-29T02:43:52;4.43;;;2.70;;
18822;SDS011;9540;51.550;7.980;2023-07-29T02:46:20;7.65;;;2.97;;
18822;SDS011;9540;51.550;7.980;2023-07-29T02:48:49;5.90;;;2.90;;
18822;SDS011;9540;51.550;7.980;2023-07-29T02:51:16;2.80;;;2.50;;
18822;SDS011;9540;51.550;7.980;2023-07-29T02:53:44;3.60;;;2.85;;
18822;SDS011;9540;51.550;7.980;2023-07-29T02:56:11;3.72;;;2.60;;
18822;SDS011;9540;51.550;7.980;2023-07-29T02:58:38;3.97;;;2.40;;
18822;SDS011;9540;51.550;7.980;2023-07-29T03:01:06;3.28;;;2.65;;
18822;SDS011;9540;51.550;7.980;2023-07-29T03:03:33;6.30;;;2.67;;
18822;SDS011;9540;51.550;7.980;2023-07-29T03:06:02;2.80;;;2.60;;
18822;SDS011;9540;51.550;7.980;2023-07-29T03:08:30;3.95;;;2.45;;
18822;SDS011;9540;51.550;7.980;2023-07-29T03:10:58;2.95;;;2.70;;
18822;SDS011;9540;51.550;7.980;2023-07-29T03:13:30;4.25;;;2.60;;
18822;SDS011;9540;51.550;7.980;2023-07-29T03:16:03;5.30;;;2.38;;
18822;SDS011;9540;51.550;7.980;2023-07-29T03:18:31;2.83;;;2.53;;
18822;SDS011;9540;51.550;7.980;2023-07-29T03:20:59;2.55;;;2.10;;
18822;SDS011;9540;51.550;7.980;2023-07-29T03:23:27;2.97;;;2.40;;
18822;SDS011;9540;51.550;7.980;2023-07-29T03:25:55;2.78;;;2.30;;
18822;SDS011;9540;51.550;7.980;2023-07-29T03:28:23;3.85;;;2.03;;
18822;SDS011;9540;51.550;7.980;2023-07-29T03:30:52;2.30;;;2.13;;
18822;SDS011;9540;51.550;7.980;2023-07-29T03:33:19;2.63;;;2.20;;
18822;SDS011;9540;51.550;7.980;2023-07-29T03:35:46;5.90;;;2.35;;
18822;SDS011;9540;51.550;7.980;2023-07-29T03:38:14;2.90;;;2.42;;
18822;SDS011;9540;51.550;7.980;2023-07-29T03:40:43;2.92;;;2.17;;
18822;SDS011;9540;51.550;7.980;2023-07-29T03:43:10;2.45;;;2.00;;
18822;SDS011;9540;51.550;7.980;2023-07-29T03:45:39;2.10;;;1.90;;
18822;SDS011;9540;51.550;7.980;2023-07-29T03:48:06;3.15;;;1.65;;
18822;SDS011;9540;51.550;7.980;2023-07-29T03:50:34;1.88;;;1.75;;
18822;SDS011;9540;51.550;7.980;2023-07-29T03:53:01;3.20;;;1.50;;
18822;SDS011;9540;51.550;7.980;2023-07-29T03:55:29;1.80;;;1.40;;
18822;SDS011;9540;51.550;7.980;2023-07-29T03:57:57;3.63;;;1.50;;
18822;SDS011;9540;51.550;7.980;2023-07-29T04:00:25;2.05;;;1.40;;
18822;SDS011;9540;51.550;7.980;2023-07-29T04:02:54;1.67;;;1.58;;
18822;SDS011;9540;51.550;7.980;2023-07-29T04:05:21;4.18;;;1.45;;
18822;SDS011;9540;51.550;7.980;2023-07-29T04:07:49;1.88;;;1.73;;
18822;SDS011;9540;51.550;7.980;2023-07-29T04:10:16;5.85;;;1.50;;
18822;SDS011;9540;51.550;7.980;2023-07-29T04:12:43;2.55;;;1.90;;
18822;SDS011;9540;51.550;7.980;2023-07-29T04:15:11;3.70;;;2.05;;
18822;SDS011;9540;51.550;7.980;2023-07-29T04:17:38;1.83;;;1.73;;
18822;SDS011;9540;51.550;7.980;2023-07-29T04:20:06;2.30;;;2.10;;
18822;SDS011;9540;51.550;7.980;2023-07-29T04:22:34;2.88;;;1.90;;
18822;SDS011;9540;51.550;7.980;2023-07-29T04:25:01;2.35;;;2.15;;
18822;SDS011;9540;51.550;7.980;2023-07-29T04:27:29;2.70;;;2.47;;
18822;SDS011;9540;51.550;7.980;2023-07-29T04:29:59;3.50;;;2.03;;
18822;SDS011;9540;51.550;7.980;2023-07-29T04:32:28;2.45;;;2.25;;
18822;SDS011;9540;51.550;7.980;2023-07-29T04:34:55;3.30;;;3.00;;
18822;SDS011;9540;51.550;7.980;2023-07-29T04:37:22;2.80;;;2.58;;
18822;SDS011;9540;51.550;7.980;2023-07-29T04:39:50;3.20;;;2.90;;
18822;SDS011;9540;51.550;7.980;2023-07-29T04:42:17;2.90;;;2.60;;
18822;SDS011;9540;51.550;7.980;2023-07-29T04:44:44;3.75;;;2.35;;
18822;SDS011;9540;51.550;7.980;2023-07-29T04:47:12;2.80;;;2.50;;
18822;SDS011;9540;51.550;7.980;2023-07-29T04:49:41;2.47;;;2.25;;
18822;SDS011;9540;51.550;7.980;2023-07-29T04:52:08;3.20;;;2.45;;
18822;SDS011;9540;51.550;7.980;2023-07-29T04:54:36;3.65;;;2.30;;
18822;SDS011;9540;51.550;7.980;2023-07-29T04:57:03;4.10;;;2.30;;
18822;SDS011;9540;51.550;7.980;2023-07-29T04:59:30;3.42;;;2.67;;
18822;SDS011;9540;51.550;7.980;2023-07-29T05:01:57;3.72;;;2.60;;
18822;SDS011;9540;51.550;7.980;2023-07-29T05:04:24;4.53;;;2.30;;
18822;SDS011;9540;51.550;7.980;2023-07-29T05:06:53;3.80;;;2.20;;
18822;SDS011;9540;51.550;7.980;2023-07-29T05:09:20;2.85;;;2.25;;
18822;SDS011;9540;51.550;7.980;2023-07-29T05:11:47;3.88;;;2.80;;
18822;SDS011;9540;51.550;7.980;2023-07-29T05:14:17;2.67;;;2.47;;
18822;SDS011;9540;51.550;7.980;2023-07-29T05:16:44;2.28;;;2.17;;
18822;SDS011;9540;51.550;7.980;2023-07-29T05:19:11;6.25;;;2.88;;
18822;SDS011;9540;51.550;7.980;2023-07-29T05:21:38;2.55;;;2.45;;
18822;SDS011;9540;51.550;7.980;2023-07-29T05:24:07;3.80;;;2.17;;
18822;SDS011;9540;51.550;7.980;2023-07-29T05:26:34;4.47;;;2.63;;
18822;SDS011;9540;51.550;7.980;2023-07-29T05:29:05;3.10;;;2.50;;
18822;SDS011;9540;51.550;7.980;2023-07-29T05:31:32;5.18;;;2.70;;
18822;SDS011;9540;51.550;7.980;2023-07-29T05:33:59;4.03;;;2.78;;
18822;SDS011;9540;51.550;7.980;2023-07-29T05:36:26;3.17;;;2.97;;
18822;SDS011;9540;51.550;7.980;2023-07-29T05:38:54;3.30;;;3.00;;
18822;SDS011;9540;51.550;7.980;2023-07-29T05:41:23;3.33;;;2.78;;
18822;SDS011;9540;51.550;7.980;2023-07-29T05:43:51;3.30;;;3.10;;
18822;SDS011;9540;51.550;7.980;2023-07-29T05:46:18;5.00;;;3.50;;
18822;SDS011;9540;51.550;7.980;2023-07-29T05:48:45;3.65;;;3.38;;
18822;SDS011;9540;51.550;7.980;2023-07-29T05:51:12;5.05;;;4.07;;
18822;SDS011;9540;51.550;7.980;2023-07-29T05:53:39;4.32;;;3.67;;
18822;SDS011;9540;51.550;7.980;2023-07-29T05:56:07;4.32;;;3.85;;
18822;SDS011;9540;51.550;7.980;2023-07-29T05:58:37;4.40;;;4.10;;
18822;SDS011;9540;51.550;7.980;2023-07-29T06:01:05;3.78;;;3.50;;
18822;SDS011;9540;51.550;7.980;2023-07-29T06:03:32;4.93;;;3.83;;
18822;SDS011;9540;51.550;7.980;2023-07-29T06:05:59;5.32;;;4.93;;
18822;SDS011;9540;51.550;7.980;2023-07-29T06:08:26;7.28;;;6.55;;
18822;SDS011;9540;51.550;7.980;2023-07-29T06:10:54;6.22;;;5.57;;
18822;SDS011;9540;51.550;7.980;2023-07-29T06:13:21;6.60;;;6.00;;
18822;SDS011;9540;51.550;7.980;2023-07-29T06:15:50;9.77;;;6.88;;
18822;SDS011;9540;51.550;7.980;2023-07-29T06:18:21;6.20;;;5.60;;
18822;SDS011;9540;51.550;7.980;2023-07-29T06:20:50;8.13;;;6.35;;
18822;SDS011;9540;51.550;7.980;2023-07-29T06:23:24;8.20;;;7.40;;
18822;SDS011;9540;51.550;7.980;2023-07-29T06:26:00;8.50;;;7.03;;
18822;SDS011;9540;51.550;7.980;2023-07-29T06:28:31;8.18;;;7.28;;
18822;SDS011;9540;51.550;7.980;2023-07-29T06:31:03;7.88;;;7.18;;
18822;SDS011;9540;51.550;7.980;2023-07-29T06:33:50;7.90;;;7.10;;
18822;SDS011;9540;51.550;7.980;2023-07-29T06:36:20;8.10;;;7.30;;
18822;SDS011;9540;51.550;7.980;2023-07-29T06:38:53;7.78;;;7.07;;
18822;SDS011;9540;51.550;7.980;2023-07-29T06:41:22;12.77;;;7.53;;
18822;SDS011;9540;51.550;7.980;2023-07-29T06:43:53;7.93;;;6.95;;
18822;SDS011;9540;51.550;7.980;2023-07-29T06:46:25;7.30;;;6.57;;
18822;SDS011;9540;51.550;7.980;2023-07-29T06:48:52;8.40;;;6.85;;
18822;SDS011;9540;51.550;7.980;2023-07-29T06:51:20;7.88;;;7.13;;
18822;SDS011;9540;51.550;7.980;2023-07-29T06:53:48;8.13;;;7.32;;
18822;SDS011;9540;51.550;7.980;2023-07-29T06:56:15;10.70;;;6.30;;
18822;SDS011;9540;51.550;7.980;2023-07-29T06:58:43;8.35;;;7.28;;
18822;SDS011;9540;51.550;7.980;2023-07-29T07:01:16;9.35;;;6.45;;
18822;SDS011;9540;51.550;7.980;2023-07-29T07:03:45;8.00;;;7.20;;
18822;SDS011;9540;51.550;7.980;2023-07-29T07:06:22;12.05;;;9.05;;
18822;SDS011;9540;51.550;7.980;2023-07-29T07:08:50;11.27;;;8.05;;
18822;SDS011;9540;51.550;7.980;2023-07-29T07:11:21;14.70;;;9.43;;
18822;SDS011;9540;51.550;7.980;2023-07-29T07:13:49;13.65;;;10.02;;
18822;SDS011;9540;51.550;7.980;2023-07-29T07:16:24;11.90;;;9.02;;
18822;SDS011;9540;51.550;7.980;2023-07-29T07:18:56;11.93;;;9.55;;
18822;SDS011;9540;51.550;7.980;2023-07-29T07:21:23;12.02;;;9.98;;
18822;SDS011;9540;51.550;7.980;2023-07-29T07:23:50;10.73;;;9.63;;
18822;SDS011;9540;51.550;7.980;2023-07-29T07:26:18;13.55;;;9.85;;
18822;SDS011;9540;51.550;7.980;2023-07-29T07:28:45;15.43;;;10.63;;
18822;SDS011;9540;51.550;7.980;2023-07-29T07:31:12;14.48;;;11.43;;
18822;SDS011;9540;51.550;7.980;2023-07-29T07:33:41;16.60;;;11.60;;
18822;SDS011;9540;51.550;7.980;2023-07-29T07:36:10;14.82;;;10.70;;
18822;SDS011;9540;51.550;7.980;2023-07-29T07:38:37;16.95;;;11.07;;
18822;SDS011;9540;51.550;7.980;2023-07-29T07:41:05;11.57;;;10.18;;
18822;SDS011;9540;51.550;7.980;2023-07-29T07:43:32;10.32;;;8.73;;
18822;SDS011;9540;51.550;7.980;2023-07-29T07:45:59;8.57;;;7.32;;
18822;SDS011;9540;51.550;7.980;2023-07-29T07:48:27;11.25;;;6.85;;
18822;SDS011;9540;51.550;7.980;2023-07-29T07:50:55;7.72;;;5.40;;
18822;SDS011;9540;51.550;7.980;2023-07-29T07:53:23;9.10;;;5.40;;
18822;SDS011;9540;51.550;7.980;2023-07-29T07:55:51;5.07;;;4.57;;
18822;SDS011;9540;51.550;7.980;2023-07-29T07:58:19;4.65;;;4.20;;
18822;SDS011;9540;51.550;7.980;2023-07-29T08:00:46;3.38;;;2.83;;
18822;SDS011;9540;51.550;7.980;2023-07-29T08:03:13;4.22;;;3.10;;
18822;SDS011;9540;51.550;7.980;2023-07-29T08:05:40;2.55;;;2.33;;
18822;SDS011;9540;51.550;7.980;2023-07-29T08:08:07;3.17;;;2.50;;
18822;SDS011;9540;51.550;7.980;2023-07-29T08:10:36;3.22;;;2.92;;
18822;SDS011;9540;51.550;7.980;2023-07-29T08:13:03;2.88;;;2.33;;
18822;SDS011;9540;51.550;7.980;2023-07-29T08:15:30;2.25;;;2.13;;
18822;SDS011;9540;51.550;7.980;2023-07-29T08:17:57;4.45;;;2.30;;
18822;SDS011;9540;51.550;7.980;2023-07-29T08:20:25;3.55;;;1.80;;
18822;SDS011;9540;51.550;7.980;2023-07-29T08:22:52;1.85;;;1.75;;
18822;SDS011;9540;51.550;7.980;2023-07-29T08:25:19;2.25;;;2.05;;
18822;SDS011;9540;51.550;7.980;2023-07-29T08:27:47;3.83;;;1.40;;
18822;SDS011;9540;51.550;7.980;2023-07-29T08:30:14;1.88;;;1.52;;
18822;SDS011;9540;51.550;7.980;2023-07-29T08:32:43;1.95;;;1.85;;
18822;SDS011;9540;51.550;7.980;2023-07-29T08:35:11;2.10;;;1.58;;
18822;SDS011;9540;51.550;7.980;2023-07-29T08:37:38;1.50;;;1.40;;
18822;SDS011;9540;51.550;7.980;2023-07-29T08:40:05;1.67;;;1.42;;
18822;SDS011;9540;51.550;7.980;2023-07-29T08:42:34;1.25;;;1.10;;
18822;SDS011;9540;51.550;7.980;2023-07-29T08:45:07;0.90;;;0.90;;
18822;SDS011;9540;51.550;7.980;2023-07-29T08:47:36;1.48;;;1.40;;
18822;SDS011;9540;51.550;7.980;2023-07-29T08:50:04;2.70;;;1.70;;
18822;SDS011;9540;51.550;7.980;2023-07-29T08:52:33;2.95;;;1.30;;
18822;SDS011;9540;51.550;7.980;2023-07-29T08:55:01;1.45;;;1.35;;
18822;SDS011;9540;51.550;7.980;2023-07-29T08:57:28;1.40;;;1.30;;
18822;SDS011;9540;51.550;7.980;2023-07-29T08:59:57;1.48;;;1.30;;
18822;SDS011;9540;51.550;7.980;2023-07-29T09:02:26;1.50;;;1.40;;
18822;SDS011;9540;51.550;7.980;2023-07-29T09:04:53;1.60;;;1.50;;
18822;SDS011;9540;51.550;7.980;2023-07-29T09:07:20;2.22;;;1.30;;
18822;SDS011;9540;51.550;7.980;2023-07-29T09:09:48;1.27;;;1.20;;
18822;SDS011;9540;51.550;7.980;2023-07-29T09:12:15;1.63;;;1.50;;
18822;SDS011;9540;51.550;7.980;2023-07-29T09:14:42;1.25;;;1.15;;
18822;SDS011;9540;51.550;7.980;2023-07-29T09:17:09;1.40;;;1.30;;
18822;SDS011;9540;51.550;7.980;2023-07-29T09:19:38;1.40;;;1.30;;
18822;SDS011;9540;51.550;7.980;2023-07-29T09:22:07;2.55;;;1.17;;
18822;SDS011;9540;51.550;7.980;2023-07-29T09:24:44;1.00;;;1.00;;
18822;SDS011;9540;51.550;7.980;2023-07-29T09:27:17;4.10;;;1.60;;
18822;SDS011;9540;51.550;7.980;2023-07-29T09:29:52;1.35;;;1.25;;
18822;SDS011;9540;51.550;7.980;2023-07-29T09:32:19;0.95;;;0.95;;
18822;SDS011;9540;51.550;7.980;2023-07-29T09:34:48;0.90;;;0.90;;
18822;SDS011;9540;51.550;7.980;2023-07-29T09:37:16;0.93;;;0.93;;
18822;SDS011;9540;51.550;7.980;2023-07-29T09:39:44;1.40;;;1.00;;
18822;SDS011;9540;51.550;7.980;2023-07-29T09:42:12;1.08;;;0.90;;
18822;SDS011;9540;51.550;7.980;2023-07-29T09:44:44;1.33;;;1.17;;
18822;SDS011;9540;51.550;7.980;2023-07-29T09:47:18;2.40;;;1.08;;
18822;SDS011;9540;51.550;7.980;2023-07-29T09:49:48;1.40;;;1.30;;
18822;SDS011;9540;51.550;7.980;2023-07-29T09:52:15;1.25;;;1.10;;
18822;SDS011;9540;51.550;7.980;2023-07-29T09:54:43;3.50;;;1.20;;
18822;SDS011;9540;51.550;7.980;2023-07-29T09:57:11;1.08;;;1.08;;
18822;SDS011;9540;51.550;7.980;2023-07-29T09:59:40;1.20;;;1.10;;
18822;SDS011;9540;51.550;7.980;2023-07-29T10:02:09;2.28;;;1.33;;
18822;SDS011;9540;51.550;7.980;2023-07-29T10:04:40;0.98;;;0.90;;
18822;SDS011;9540;51.550;7.980;2023-07-29T10:07:10;1.25;;;1.15;;
18822;SDS011;9540;51.550;7.980;2023-07-29T10:09:38;2.17;;;0.90;;
18822;SDS011;9540;51.550;7.980;2023-07-29T10:12:06;1.17;;;1.17;;
18822;SDS011;9540;51.550;7.980;2023-07-29T10:14:34;1.02;;;1.02;;
18822;SDS011;9540;51.550;7.980;2023-07-29T10:17:01;1.67;;;1.10;;
18822;SDS011;9540;51.550;7.980;2023-07-29T10:19:31;3.60;;;1.30;;
18822;SDS011;9540;51.550;7.980;2023-07-29T10:21:59;1.45;;;1.23;;
18822;SDS011;9540;51.550;7.980;2023-07-29T10:24:29;3.78;;;1.40;;
18822;SDS011;9540;51.550;7.980;2023-07-29T10:26:59;1.23;;;1.10;;
18822;SDS011;9540;51.550;7.980;2023-07-29T10:29:28;1.02;;;1.00;;
18822;SDS011;9540;51.550;7.980;2023-07-29T10:31:58;1.10;;;1.00;;
18822;SDS011;9540;51.550;7.980;2023-07-29T10:34:29;1.10;;;1.00;;
18822;SDS011;9540;51.550;7.980;2023-07-29T10:36:57;4.07;;;1.00;;
18822;SDS011;9540;51.550;7.980;2023-07-29T10:39:25;1.00;;;1.00;;
18822;SDS011;9540;51.550;7.980;2023-07-29T10:41:58;0.90;;;0.90;;
18822;SDS011;9540;51.550;7.980;2023-07-29T10:47:19;1.30;;;1.00;;
18822;SDS011;9540;51.550;7.980;2023-07-29T10:49:49;1.27;;;0.80;;
18822;SDS011;9540;51.550;7.980;2023-07-29T10:52:29;1.08;;;1.08;;
18822;SDS011;9540;51.550;7.980;2023-07-29T10:54:57;1.15;;;1.02;;
18822;SDS011;9540;51.550;7.980;2023-07-29T10:57:37;0.90;;;0.70;;
18822;SDS011;9540;51.550;7.980;2023-07-29T11:00:06;1.10;;;1.00;;
18822;SDS011;9540;51.550;7.980;2023-07-29T11:02:35;1.00;;;1.00;;
18822;SDS011;9540;51.550;7.980;2023-07-29T11:05:04;2.05;;;1.17;;
18822;SDS011;9540;51.550;7.980;2023-07-29T11:07:34;0.95;;;0.95;;
18822;SDS011;9540;51.550;7.980;2023-07-29T11:10:11;2.58;;;1.00;;
18822;SDS011;9540;51.550;7.980;2023-07-29T11:12:41;2.72;;;1.02;;
18822;SDS011;9540;51.550;7.980;2023-07-29T11:15:28;2.35;;;0.90;;
18822;SDS011;9540;51.550;7.980;2023-07-29T11:17:56;1.10;;;1.10;;
18822;SDS011;9540;51.550;7.980;2023-07-29T11:20:24;1.40;;;1.20;;
18822;SDS011;9540;51.550;7.980;2023-07-29T11:22:52;1.10;;;1.10;;
18822;SDS011;9540;51.550;7.980;2023-07-29T11:25:20;1.35;;;1.08;;
18822;SDS011;9540;51.550;7.980;2023-07-29T11:27:51;1.73;;;1.10;;
18822;SDS011;9540;51.550;7.980;2023-07-29T11:30:19;1.30;;;1.20;;
18822;SDS011;9540;51.550;7.980;2023-07-29T11:32:47;2.45;;;1.20;;
18822;SDS011;9540;51.550;7.980;2023-07-29T11:35:15;1.38;;;1.27;;
18822;SDS011;9540;51.550;7.980;2023-07-29T11:37:45;1.88;;;1.77;;
18822;SDS011;9540;51.550;7.980;2023-07-29T11:40:13;2.33;;;2.13;;
18822;SDS011;9540;51.550;7.980;2023-07-29T11:42:41;1.90;;;1.80;;
18822;SDS011;9540;51.550;7.980;2023-07-29T11:45:12;1.70;;;1.60;;
18822;SDS011;9540;51.550;7.980;2023-07-29T11:47:40;2.33;;;1.83;;
18822;SDS011;9540;51.550;7.980;2023-07-29T11:50:09;1.80;;;1.70;;
18822;SDS011;9540;51.550;7.980;2023-07-29T11:52:40;1.40;;;1.40;;
18822;SDS011;9540;51.550;7.980;2023-07-29T11:55:08;1.83;;;1.55;;
18822;SDS011;9540;51.550;7.980;2023-07-29T11:57:36;1.67;;;1.58;;
18822;SDS011;9540;51.550;7.980;2023-07-29T12:00:05;1.90;;;1.80;;
18822;SDS011;9540;51.550;7.980;2023-07-29T12:02:37;2.33;;;1.80;;
18822;SDS011;9540;51.550;7.980;2023-07-29T12:05:05;2.65;;;1.40;;
18822;SDS011;9540;51.550;7.980;2023-07-29T12:07:34;1.20;;;1.20;;
18822;SDS011;9540;51.550;7.980;2023-07-29T12:10:02;1.27;;;1.20;;
18822;SDS011;9540;51.550;7.980;2023-07-29T12:12:30;1.40;;;1.30;;
18822;SDS011;9540;51.550;7.980;2023-07-29T12:14:57;2.25;;;1.58;;
18822;SDS011;9540;51.550;7.980;2023-07-29T12:17:25;1.80;;;1.70;;
18822;SDS011;9540;51.550;7.980;2023-07-29T12:19:55;1.63;;;1.52;;
18822;SDS011;9540;51.550;7.980;2023-07-29T12:22:22;1.50;;;1.40;;
18822;SDS011;9540;51.550;7.980;2023-07-29T12:24:52;1.77;;;1.30;;
18822;SDS011;9540;51.550;7.980;2023-07-29T12:27:21;1.48;;;1.38;;
18822;SDS011;9540;51.550;7.980;2023-07-29T12:29:48;1.70;;;1.60;;
18822;SDS011;9540;51.550;7.980;2023-07-29T12:32:19;1.35;;;1.25;;
18822;SDS011;9540;51.550;7.980;2023-07-29T12:34:46;1.77;;;1.65;;
18822;SDS011;9540;51.550;7.980;2023-07-29T12:37:15;4.35;;;1.77;;
18822;SDS011;9540;51.550;7.980;2023-07-29T12:39:42;1.95;;;1.80;;
18822;SDS011;9540;51.550;7.980;2023-07-29T12:42:09;2.33;;;1.45;;
18822;SDS011;9540;51.550;7.980;2023-07-29T12:44:37;2.90;;;1.80;;
18822;SDS011;9540;51.550;7.980;2023-07-29T12:47:05;1.80;;;1.70;;
18822;SDS011;9540;51.550;7.980;2023-07-29T12:49:33;1.80;;;1.70;;
18822;SDS011;9540;51.550;7.980;2023-07-29T12:52:00;2.08;;;1.60;;
18822;SDS011;9540;51.550;7.980;2023-07-29T12:54:29;1.70;;;1.60;;
18822;SDS011;9540;51.550;7.980;2023-07-29T12:56:57;1.20;;;1.20;;
18822;SDS011;9540;51.550;7.980;2023-07-29T12:59:25;2.35;;;1.30;;
18822;SDS011;9540;51.550;7.980;2023-07-29T13:01:52;1.92;;;1.38;;
18822;SDS011;9540;51.550;7.980;2023-07-29T13:04:20;1.17;;;1.17;;
18822;SDS011;9540;51.550;7.980;2023-07-29T13:06:47;1.35;;;1.25;;
18822;SDS011;9540;51.550;7.980;2023-07-29T13:09:14;1.48;;;1.38;;
18822;SDS011;9540;51.550;7.980;2023-07-29T13:11:42;2.65;;;1.63;;
18822;SDS011;9540;51.550;7.980;2023-07-29T13:14:10;1.25;;;1.15;;
18822;SDS011;9540;51.550;7.980;2023-07-29T13:16:37;2.40;;;1.25;;
18822;SDS011;9540;51.550;7.980;2023-07-29T13:19:04;2.00;;;1.30;;
18822;SDS011;9540;51.550;7.980;2023-07-29T13:21:31;2.03;;;1.30;;
18822;SDS011;9540;51.550;7.980;2023-07-29T13:23:59;1.67;;;1.40;;
18822;SDS011;9540;51.550;7.980;2023-07-29T13:26:26;2.53;;;1.23;;
18822;SDS011;9540;51.550;7.980;2023-07-29T13:28:55;3.40;;;1.55;;
18822;SDS011;9540;51.550;7.980;2023-07-29T13:31:22;1.60;;;1.50;;
18822;SDS011;9540;51.550;7.980;2023-07-29T13:33:49;1.15;;;1.05;;
18822;SDS011;9540;51.550;7.980;2023-07-29T13:36:16;1.33;;;1.23;;
18822;SDS011;9540;51.550;7.980;2023-07-29T13:38:44;1.55;;;1.45;;
18822;SDS011;9540;51.550;7.980;2023-07-29T13:41:11;1.40;;;1.30;;
18822;SDS011;9540;51.550;7.980;2023-07-29T13:43:38;1.25;;;1.17;;
18822;SDS011;9540;51.550;7.980;2023-07-29T13:46:07;1.20;;;1.10;;
18822;SDS011;9540;51.550;7.980;2023-07-29T13:48:35;2.53;;;1.10;;
18822;SDS011;9540;51.550;7.980;2023-07-29T13:51:02;1.40;;;1.30;;
18822;SDS011;9540;51.550;7.980;2023-07-29T13:53:29;2.03;;;1.45;;
18822;SDS011;9540;51.550;7.980;2023-07-29T13:55:57;2.45;;;1.20;;
18822;SDS011;9540;51.550;7.980;2023-07-29T13:58:24;1.85;;;1.20;;
18822;SDS011;9540;51.550;7.980;2023-07-29T14:00:51;4.03;;;1.60;;
18822;SDS011;9540;51.550;7.980;2023-07-29T14:03:20;4.78;;;1.50;;
18822;SDS011;9540;51.550;7.980;2023-07-29T14:05:47;1.60;;;1.50;;
18822;SDS011;9540;51.550;7.980;2023-07-29T14:08:14;1.50;;;1.30;;
18822;SDS011;9540;51.550;7.980;2023-07-29T14:10:41;1.98;;;1.52;;
18822;SDS011;9540;51.550;7.980;2023-07-29T14:13:09;3.78;;;1.50;;
18822;SDS011;9540;51.550;7.980;2023-07-29T14:15:38;2.95;;;1.83;;
18822;SDS011;9540;51.550;7.980;2023-07-29T14:18:05;1.98;;;1.63;;
18822;SDS011;9540;51.550;7.980;2023-07-29T14:20:34;1.58;;;1.48;;
18822;SDS011;9540;51.550;7.980;2023-07-29T14:23:01;1.50;;;1.40;;
18822;SDS011;9540;51.550;7.980;2023-07-29T14:25:29;1.95;;;1.65;;
18822;SDS011;9540;51.550;7.980;2023-07-29T14:27:56;1.75;;;1.50;;
18822;SDS011;9540;51.550;7.980;2023-07-29T14:30:23;2.08;;;1.73;;
18822;SDS011;9540;51.550;7.980;2023-07-29T14:32:50;1.60;;;1.30;;
18822;SDS011;9540;51.550;7.980;2023-07-29T14:35:18;1.58;;;1.48;;
18822;SDS011;9540;51.550;7.980;2023-07-29T14:37:46;2.63;;;1.45;;
18822;SDS011;9540;51.550;7.980;2023-07-29T14:40:13;2.13;;;1.50;;
18822;SDS011;9540;51.550;7.980;2023-07-29T14:42:41;1.75;;;1.48;;
18822;SDS011;9540;51.550;7.980;2023-07-29T14:45:08;1.60;;;1.50;;
18822;SDS011;9540;51.550;7.980;2023-07-29T14:47:36;3.40;;;1.55;;
18822;SDS011;9540;51.550;7.980;2023-07-29T14:50:03;1.63;;;1.52;;
18822;SDS011;9540;51.550;7.980;2023-07-29T14:52:31;3.83;;;1.80;;
18822;SDS011;9540;51.550;7.980;2023-07-29T14:54:59;3.50;;;1.65;;
18822;SDS011;9540;51.550;7.980;2023-07-29T14:57:26;1.65;;;1.55;;
18822;SDS011;9540;51.550;7.980;2023-07-29T14:59:54;2.33;;;1.70;;
18822;SDS011;9540;51.550;7.980;2023-07-29T15:02:21;1.73;;;1.63;;
18822;SDS011;9540;51.550;7.980;2023-07-29T15:04:48;2.40;;;1.70;;
18822;SDS011;9540;51.550;7.980;2023-07-29T15:07:15;1.92;;;1.83;;
18822;SDS011;9540;51.550;7.980;2023-07-29T15:09:43;2.05;;;1.95;;
18822;SDS011;9540;51.550;7.980;2023-07-29T15:12:11;1.80;;;1.70;;